Time;durP1;ratioP1;P1;durP2;ratioP2;P2;SDS_P1;SDS_P2;PMS_P1;PMS_P2;Temp;Humidity;BMP_temperature;BMP_pressure;BME280_temperature;BME280_humidity;BME280_pressure;Samples;Min_cycle;Max_cycle;Signal;HPM_P1;HPM_P2
2022/06/17 00:00:53;;;;;;;14.75;8.40;;;14.40;99.90;;;;;;5100867;28;20092;-78
2022/06/17 00:03:19;;;;;;;11.23;8.88;;;14.30;99.90;;;;;;5090420;28;20048;-80
2022/06/17 00:05:45;;;;;;;15.82;9.25;;;14.40;99.90;;;;;;5100730;28;20048;-78
2022/06/17 00:08:17;;;;;;;10.45;9.07;;;14.40;99.90;;;;;;5078224;28;20044;-77
2022/06/17 00:10:46;;;;;;;17.02;10.05;;;14.40;99.90;;;;;;5075565;28;20050;-78
2022/06/17 00:13:14;;;;;;;13.20;10.07;;;14.30;99.90;;;;;;5059191;28;20339;-78
2022/06/17 00:15:41;;;;;;;14.50;9.38;;;14.30;99.90;;;;;;5075857;28;20032;-79
2022/06/17 00:18:07;;;;;;;14.60;9.90;;;14.20;99.90;;;;;;5076029;28;20035;-79
2022/06/17 00:20:34;;;;;;;11.57;9.13;;;14.20;99.90;;;;;;5075459;28;20048;-78
2022/06/17 00:23:00;;;;;;;13.52;10.00;;;14.20;99.90;;;;;;5075492;28;20050;-79
2022/06/17 00:25:49;;;;;;;12.27;9.40;;;14.20;99.90;;;;;;5065417;28;20083;-79
2022/06/17 00:28:18;;;;;;;12.38;9.57;;;14.20;99.90;;;;;;5071776;28;20036;-79
2022/06/17 00:30:46;;;;;;;12.45;10.38;;;14.20;99.90;;;;;;5055361;28;20052;-78
2022/06/17 00:33:14;;;;;;;15.93;9.77;;;14.20;99.90;;;;;;5055781;28;20037;-78
2022/06/17 00:35:47;;;;;;;15.95;10.52;;;14.30;99.90;;;;;;5054970;28;20124;-79
2022/06/17 00:38:19;;;;;;;16.08;9.50;;;14.30;99.90;;;;;;5055060;28;20041;-79
2022/06/17 00:40:45;;;;;;;11.80;9.65;;;14.30;99.90;;;;;;5055577;28;20059;-79
2022/06/17 00:43:34;;;;;;;13.23;9.40;;;14.30;99.90;;;;;;5055299;28;20052;-78
2022/06/17 00:46:05;;;;;;;11.90;9.88;;;14.30;99.90;;;;;;5073172;28;20049;-78
2022/06/17 00:48:37;;;;;;;14.93;10.25;;;14.30;99.90;;;;;;5055238;28;20044;-79
2022/06/17 00:51:14;;;;;;;14.13;10.00;;;14.30;99.90;;;;;;5055062;28;20879;-79
2022/06/17 00:54:01;;;;;;;15.00;9.45;;;14.30;99.90;;;;;;5069297;28;20166;-78
2022/06/17 00:56:33;;;;;;;15.43;9.90;;;14.30;99.90;;;;;;5065435;28;20059;-78
2022/06/17 00:58:59;;;;;;;13.40;9.60;;;14.40;99.90;;;;;;5073005;28;20032;-79
2022/06/17 01:01:25;;;;;;;12.55;9.48;;;14.40;99.90;;;;;;5055813;28;20051;-78
2022/06/17 01:03:54;;;;;;;15.10;9.60;;;14.40;99.90;;;;;;5055431;28;20077;-78
2022/06/17 01:06:24;;;;;;;19.50;10.02;;;14.40;99.90;;;;;;5065134;28;20064;-79
2022/06/17 01:11:46;;;;;;;14.55;9.73;;;14.40;99.90;;;;;;5051507;28;20066;-78
2022/06/17 01:14:15;;;;;;;13.18;9.02;;;14.40;99.90;;;;;;5035208;28;20033;-79
2022/06/17 01:16:46;;;;;;;17.30;9.80;;;14.40;99.90;;;;;;5051488;28;20076;-78
2022/06/17 01:19:36;;;;;;;12.07;9.38;;;14.40;99.90;;;;;;5034719;28;20112;-79
2022/06/17 01:22:23;;;;;;;12.85;9.38;;;14.40;99.90;;;;;;5049983;28;20040;-79
2022/06/17 01:24:52;;;;;;;13.85;9.07;;;14.40;99.90;;;;;;5053224;28;20090;-79
2022/06/17 01:27:22;;;;;;;12.90;8.27;;;14.40;99.90;;;;;;5071769;28;20102;-80
2022/06/17 01:29:49;;;;;;;13.68;8.88;;;14.30;99.90;;;;;;5069457;28;20083;-77
2022/06/17 01:32:18;;;;;;;16.67;9.05;;;14.40;99.90;;;;;;5052082;28;20048;-79
2022/06/17 01:34:44;;;;;;;10.85;8.82;;;14.40;99.90;;;;;;5054129;28;20072;-79
2022/06/17 01:37:10;;;;;;;12.70;8.88;;;14.30;99.90;;;;;;5054371;28;20434;-79
2022/06/17 01:39:36;;;;;;;14.48;8.77;;;14.30;99.90;;;;;;5071100;28;20036;-79
2022/06/17 01:42:03;;;;;;;15.45;8.50;;;14.30;99.90;;;;;;5054726;28;20044;-79
2022/06/17 01:44:35;;;;;;;11.82;8.80;;;14.30;99.90;;;;;;5037539;28;20036;-79
2022/06/17 01:47:05;;;;;;;18.95;9.25;;;14.30;99.90;;;;;;5054642;28;20349;-79
2022/06/17 01:49:40;;;;;;;15.00;8.85;;;14.20;99.90;;;;;;5037223;28;20521;-79
2022/06/17 01:52:19;;;;;;;;;;;14.20;99.90;;;;;;5054570;28;20048;-79
2022/06/17 01:55:01;;;;;;;11.80;9.25;;;14.20;99.90;;;;;;5088184;28;20324;-79
2022/06/17 01:57:39;;;;;;;12.80;8.85;;;14.10;99.90;;;;;;5054375;28;20407;-79
2022/06/17 02:00:19;;;;;;;10.38;8.15;;;14.10;99.90;;;;;;5037394;28;20345;-78
2022/06/17 02:02:49;;;;;;;11.73;8.27;;;14.10;99.90;;;;;;5053735;28;20125;-78
2022/06/17 02:05:15;;;;;;;12.82;8.70;;;14.00;99.90;;;;;;5053255;28;20117;-79
2022/06/17 02:07:52;;;;;;;13.40;9.23;;;14.00;99.90;;;;;;5053460;28;20161;-79
2022/06/17 02:10:23;;;;;;;10.55;8.10;;;14.00;99.90;;;;;;5053903;28;20040;-79
2022/06/17 02:12:50;;;;;;;11.63;8.30;;;14.00;99.90;;;;;;5037217;28;20074;-79
2022/06/17 02:15:16;;;;;;;13.07;8.43;;;14.00;99.90;;;;;;5070715;28;20476;-79
2022/06/17 02:17:45;;;;;;;11.80;8.27;;;14.00;99.90;;;;;;5056126;28;20472;-78
2022/06/17 02:20:16;;;;;;;11.05;7.85;;;14.00;99.90;;;;;;5085062;28;20050;-78
2022/06/17 02:22:45;;;;;;;11.57;8.23;;;13.90;99.90;;;;;;5066898;28;20048;-78
2022/06/17 02:25:20;;;;;;;9.95;7.78;;;14.00;99.90;;;;;;5058813;28;20066;-78
2022/06/17 02:27:48;;;;;;;;;;;14.00;99.90;;;;;;5034606;28;20381;-79
2022/06/17 02:30:14;;;;;;;12.38;7.97;;;14.00;99.90;;;;;;5033565;28;19920;-80
2022/06/17 02:32:41;;;;;;;13.05;8.05;;;14.00;99.90;;;;;;5033751;28;20073;-80
2022/06/17 02:35:25;;;;;;;12.07;8.15;;;14.10;99.90;;;;;;5049817;28;20041;-80
2022/06/17 02:37:52;;;;;;;13.52;8.30;;;14.00;99.90;;;;;;5049628;28;20044;-79
2022/06/17 02:40:33;;;;;;;13.02;8.48;;;14.00;99.90;;;;;;5050396;28;20045;-79
2022/06/17 02:43:01;;;;;;;12.80;8.30;;;13.90;99.90;;;;;;5033629;28;20430;-80
2022/06/17 02:45:31;;;;;;;9.07;7.88;;;13.90;99.90;;;;;;5033704;28;20140;-80
2022/06/17 02:47:57;;;;;;;16.65;8.50;;;13.90;99.90;;;;;;5033908;28;20435;-79
2022/06/17 02:50:27;;;;;;;13.07;8.15;;;13.90;99.90;;;;;;5033392;28;20041;-79
2022/06/17 02:52:55;;;;;;;14.50;8.32;;;13.90;99.90;;;;;;5033689;28;20053;-79
2022/06/17 02:55:30;;;;;;;14.50;8.77;;;13.80;99.90;;;;;;5049871;28;20048;-76
2022/06/17 02:58:00;;;;;;;;;;;13.80;99.90;;;;;;5050667;28;20048;-78
2022/06/17 03:00:25;;;;;;;11.05;7.82;;;13.80;99.90;;;;;;5085228;28;19916;-79
2022/06/17 03:02:55;;;;;;;9.55;7.63;;;13.70;99.90;;;;;;5053324;28;20401;-79
2022/06/17 03:05:28;;;;;;;11.07;7.60;;;13.70;99.90;;;;;;5069297;28;20048;-78
2022/06/17 03:07:55;;;;;;;12.20;7.03;;;13.70;99.90;;;;;;5070162;28;20044;-78
2022/06/17 03:10:36;;;;;;;10.55;6.85;;;13.70;99.90;;;;;;5074677;28;20136;-78
2022/06/17 03:13:08;;;;;;;10.05;6.82;;;13.70;99.90;;;;;;5049946;28;20056;-78
2022/06/17 03:15:38;;;;;;;8.07;6.32;;;13.80;99.90;;;;;;5049966;28;20040;-79
2022/06/17 03:18:04;;;;;;;10.07;6.28;;;13.80;99.90;;;;;;5066960;28;20492;-79
2022/06/17 03:20:33;;;;;;;11.13;6.72;;;13.90;99.90;;;;;;5049301;28;20068;-79
2022/06/17 03:23:07;;;;;;;8.63;6.30;;;13.90;99.90;;;;;;5049433;28;20041;-78
2022/06/17 03:25:51;;;;;;;7.80;5.60;;;14.00;99.90;;;;;;5052768;28;20514;-78
2022/06/17 03:28:25;;;;;;;8.85;5.65;;;14.10;99.90;;;;;;5052738;28;20048;-80
2022/06/17 03:31:28;;;;;;;11.02;5.80;;;14.20;99.90;;;;;;5056930;28;20048;-79
2022/06/17 03:33:59;;;;;;;12.32;5.30;;;14.30;99.90;;;;;;4996704;28;20489;-79
2022/06/17 03:36:52;;;;;;;8.75;5.20;;;14.40;99.90;;;;;;4996060;28;20217;-79
2022/06/17 03:39:36;;;;;;;6.53;5.13;;;14.50;99.90;;;;;;4938388;29;20557;-79
2022/06/17 03:42:08;;;;;;;8.48;5.60;;;14.50;99.90;;;;;;4938428;29;20063;-78
2022/06/17 03:45:12;;;;;;;8.60;5.78;;;14.60;99.90;;;;;;4938641;29;20217;-79
2022/06/17 03:48:18;;;;;;;10.63;5.72;;;14.60;99.90;;;;;;4943562;29;20043;-77
2022/06/17 03:50:48;;;;;;;6.75;5.50;;;14.60;99.90;;;;;;4968073;29;20055;-77
2022/06/17 03:53:34;;;;;;;7.68;5.75;;;14.60;99.90;;;;;;4957773;29;20135;-80
2022/06/17 03:56:21;;;;;;;9.70;5.80;;;14.60;99.90;;;;;;4925167;29;20126;-78
2022/06/17 03:58:48;;;;;;;9.38;6.28;;;14.70;99.90;;;;;;4938600;29;20031;-78
2022/06/17 04:01:36;;;;;;;11.50;5.15;;;14.80;99.90;;;;;;4954154;29;20043;-79
2022/06/17 04:04:35;;;;;;;9.93;5.88;;;14.80;99.90;;;;;;4938126;29;20123;-80
2022/06/17 04:07:01;;;;;;;11.93;6.07;;;15.20;99.90;;;;;;4919340;29;20510;-78
2022/06/17 04:09:31;;;;;;;8.82;5.97;;;15.00;99.90;;;;;;4937607;28;20054;-79
2022/06/17 04:12:19;;;;;;;9.73;5.82;;;15.20;99.90;;;;;;4957189;28;20086;-79
2022/06/17 04:15:00;;;;;;;9.73;6.10;;;15.30;99.90;;;;;;4941068;28;20398;-79
2022/06/17 04:17:29;;;;;;;9.40;5.60;;;15.40;99.90;;;;;;4976884;28;20081;-79
2022/06/17 04:20:34;;;;;;;9.82;5.93;;;15.40;99.90;;;;;;4995501;28;20041;-79
2022/06/17 04:23:16;;;;;;;9.18;5.68;;;15.60;99.90;;;;;;4995375;28;20073;-78
2022/06/17 04:25:52;;;;;;;7.65;5.40;;;15.60;99.90;;;;;;5025393;28;20045;-77
2022/06/17 04:28:28;;;;;;;7.80;5.70;;;15.70;99.90;;;;;;5018883;28;20037;-78
2022/06/17 04:31:00;;;;;;;10.27;5.68;;;15.60;99.90;;;;;;5015229;28;20160;-79
2022/06/17 04:33:27;;;;;;;9.52;5.65;;;15.70;99.90;;;;;;5015121;28;20389;-78
2022/06/17 04:36:03;;;;;;;12.93;5.70;;;15.70;99.90;;;;;;5014915;28;20508;-79
2022/06/17 04:38:33;;;;;;;7.78;5.47;;;15.70;99.90;;;;;;5014573;28;20098;-78
2022/06/17 04:41:02;;;;;;;8.32;5.90;;;15.80;99.90;;;;;;5013557;28;20102;-79
2022/06/17 04:43:35;;;;;;;9.70;6.00;;;15.80;99.90;;;;;;5036981;28;20110;-79
2022/06/17 04:46:14;;;;;;;13.38;6.05;;;15.80;99.90;;;;;;5055256;28;20050;-79
2022/06/17 04:48:40;;;;;;;13.90;5.95;;;16.20;99.90;;;;;;5055847;28;20186;-78
2022/06/17 04:51:06;;;;;;;16.42;6.45;;;16.10;99.90;;;;;;5058899;28;20165;-79
2022/06/17 04:53:33;;;;;;;8.23;5.82;;;16.10;99.90;;;;;;5058380;28;20055;-79
2022/06/17 04:56:01;;;;;;;14.13;6.20;;;16.00;99.90;;;;;;5058781;28;20130;-79
2022/06/17 04:58:27;;;;;;;8.05;5.45;;;15.90;99.90;;;;;;5075274;28;20154;-79
2022/06/17 05:00:55;;;;;;;7.95;5.78;;;15.90;99.90;;;;;;5075544;28;20585;-79
2022/06/17 05:03:25;;;;;;;9.77;5.50;;;15.90;99.90;;;;;;5058695;28;20128;-79
2022/06/17 05:05:51;;;;;;;13.93;6.20;;;15.90;99.90;;;;;;5091940;28;20052;-79
2022/06/17 05:08:30;;;;;;;9.57;5.97;;;15.90;99.90;;;;;;5058336;28;20193;-79
2022/06/17 05:11:05;;;;;;;10.93;5.72;;;15.90;99.90;;;;;;5055014;28;20040;-79
2022/06/17 05:13:43;;;;;;;12.20;6.68;;;15.90;99.90;;;;;;5039215;28;20421;-80
2022/06/17 05:16:12;;;;;;;8.95;5.93;;;15.90;99.90;;;;;;5046663;28;20051;-80
2022/06/17 05:18:38;;;;;;;9.63;5.78;;;16.00;99.90;;;;;;5068958;28;20100;-78
2022/06/17 05:21:07;;;;;;;10.13;5.72;;;16.00;99.90;;;;;;5043947;28;20130;-80
2022/06/17 05:23:33;;;;;;;14.57;6.72;;;15.90;99.90;;;;;;5038887;28;20036;-80
2022/06/17 05:25:58;;;;;;;12.68;6.40;;;16.00;99.90;;;;;;5065715;28;20057;-80
2022/06/17 05:28:25;;;;;;;12.90;6.13;;;16.00;99.90;;;;;;5072847;28;20044;-79
2022/06/17 05:30:53;;;;;;;9.70;6.03;;;16.00;99.90;;;;;;5054519;28;20037;-78
2022/06/17 05:33:20;;;;;;;10.05;6.00;;;16.10;99.90;;;;;;5071261;28;20044;-78
2022/06/17 05:35:47;;;;;;;8.18;5.95;;;16.10;99.90;;;;;;5054094;28;20040;-79
2022/06/17 05:38:14;;;;;;;9.60;5.82;;;16.10;99.90;;;;;;5070986;28;20032;-80
2022/06/17 05:40:40;;;;;;;8.82;5.90;;;16.20;99.90;;;;;;5054551;28;20048;-78
2022/06/17 05:43:06;;;;;;;8.25;5.95;;;16.20;99.90;;;;;;5071133;28;20097;-79
2022/06/17 05:45:32;;;;;;;8.60;5.40;;;16.30;99.90;;;;;;5071328;28;20131;-78
2022/06/17 05:47:58;;;;;;;13.93;5.70;;;16.40;99.90;;;;;;5063523;28;20261;-77
2022/06/17 05:50:25;;;;;;;11.50;5.85;;;16.50;99.90;;;;;;5057503;28;20558;-77
2022/06/17 05:52:56;;;;;;;8.18;5.38;;;16.50;99.90;;;;;;5090881;28;20040;-78
2022/06/17 05:55:24;;;;;;;13.18;6.07;;;16.60;99.90;;;;;;5074324;28;20412;-78
2022/06/17 05:57:50;;;;;;;10.65;5.75;;;16.70;99.90;;;;;;5074347;28;20043;-78
2022/06/17 06:00:17;;;;;;;12.23;5.85;;;16.70;99.90;;;;;;5074144;28;20039;-79
2022/06/17 06:02:43;;;;;;;8.95;5.95;;;16.70;99.90;;;;;;5090813;28;20142;-79
2022/06/17 06:05:13;;;;;;;11.93;6.13;;;16.80;99.90;;;;;;5056804;28;20099;-79
2022/06/17 06:07:39;;;;;;;8.27;5.47;;;16.90;99.90;;;;;;5056911;28;20451;-79
2022/06/17 06:10:07;;;;;;;8.13;5.30;;;16.90;99.90;;;;;;5053852;28;20148;-79
2022/06/17 06:15:17;;;;;;;12.40;6.28;;;17.00;99.90;;;;;;5053844;28;20047;-79
2022/06/17 06:17:46;;;;;;;15.27;5.82;;;17.10;99.90;;;;;;5053851;28;20123;-80
2022/06/17 06:20:31;;;;;;;12.70;5.70;;;17.10;99.90;;;;;;5036550;28;20105;-79
2022/06/17 06:22:56;;;;;;;9.07;5.88;;;17.20;99.90;;;;;;5036598;28;20513;-78
2022/06/17 06:25:23;;;;;;;11.82;5.75;;;17.20;99.90;;;;;;5059786;28;20094;-79
2022/06/17 06:27:49;;;;;;;16.08;5.93;;;17.30;99.90;;;;;;5070388;28;20127;-78
2022/06/17 06:30:23;;;;;;;8.68;5.80;;;17.30;99.90;;;;;;5053377;28;20099;-79
2022/06/17 06:32:51;;;;;;;11.02;6.05;;;17.50;99.90;;;;;;5053588;28;20129;-79
2022/06/17 06:35:19;;;;;;;9.90;5.68;;;17.60;99.90;;;;;;5086897;28;20056;-79
2022/06/17 06:37:44;;;;;;;7.57;5.72;;;17.70;99.90;;;;;;5053148;28;20033;-79
2022/06/17 06:40:11;;;;;;;11.95;6.03;;;17.80;99.90;;;;;;5053383;28;20051;-78
2022/06/17 06:42:37;;;;;;;13.50;5.95;;;18.00;99.90;;;;;;5056335;28;20055;-80
2022/06/17 06:45:04;;;;;;;9.65;5.97;;;18.20;99.90;;;;;;5067245;28;20063;-79
2022/06/17 06:47:30;;;;;;;11.70;6.15;;;18.40;99.90;;;;;;5088537;28;20040;-78
2022/06/17 06:49:55;;;;;;;9.70;6.03;;;18.60;99.90;;;;;;5062862;28;20085;-81
2022/06/17 06:52:21;;;;;;;11.38;5.82;;;18.70;99.90;;;;;;5057306;28;20085;-79
2022/06/17 06:54:47;;;;;;;10.77;5.63;;;18.90;99.90;;;;;;5073825;28;20128;-78
2022/06/17 06:57:16;;;;;;;8.98;5.80;;;19.00;99.90;;;;;;5070406;28;20083;-78
2022/06/17 06:59:45;;;;;;;9.35;5.72;;;19.10;99.90;;;;;;5056801;28;20039;-79
2022/06/17 07:02:10;;;;;;;12.30;5.80;;;19.20;99.90;;;;;;5058164;28;20044;-80
2022/06/17 07:04:36;;;;;;;9.25;5.40;;;19.30;99.90;;;;;;5075319;28;20452;-79
2022/06/17 07:07:02;;;;;;;11.55;5.93;;;19.50;99.90;;;;;;5060771;28;20461;-79
2022/06/17 07:09:28;;;;;;;13.10;6.35;;;19.50;99.90;;;;;;5060708;28;20032;-79
2022/06/17 07:11:53;;;;;;;9.48;5.30;;;19.50;99.90;;;;;;5077848;28;20102;-79
2022/06/17 07:14:19;;;;;;;9.70;5.65;;;19.50;99.90;;;;;;5061438;28;20044;-79
2022/06/17 07:16:45;;;;;;;9.50;5.35;;;19.60;99.90;;;;;;5062501;28;20044;-79
2022/06/17 07:19:23;;;;;;;9.60;5.13;;;19.70;99.90;;;;;;5061280;28;20051;-80
2022/06/17 07:21:48;;;;;;;10.40;5.10;;;19.80;99.90;;;;;;5057294;28;20491;-77
2022/06/17 07:24:15;;;;;;;11.75;4.82;;;19.90;99.90;;;;;;5057106;28;20149;-79
2022/06/17 07:26:41;;;;;;;9.80;5.28;;;20.00;99.90;;;;;;5057388;28;20182;-80
2022/06/17 07:29:08;;;;;;;9.05;5.20;;;20.00;99.90;;;;;;5057192;28;20123;-79
2022/06/17 07:31:34;;;;;;;10.38;5.40;;;20.10;99.90;;;;;;5067143;28;20041;-80
2022/06/17 07:34:00;;;;;;;8.35;4.95;;;20.30;99.90;;;;;;5056826;28;20471;-80
2022/06/17 07:42:01;;;;;;;13.32;5.07;;;20.70;99.90;;;;;;5056797;28;20298;-79
2022/06/17 07:44:26;;;;;;;9.82;5.63;;;20.70;99.90;;;;;;5068462;28;20061;-80
2022/06/17 07:46:52;;;;;;;5.90;4.68;;;20.80;99.90;;;;;;5060527;28;20498;-79
2022/06/17 07:49:18;;;;;;;9.73;5.13;;;20.90;99.90;;;;;;5059890;28;20048;-79
2022/06/17 07:51:44;;;;;;;12.38;5.47;;;21.00;99.90;;;;;;5059750;28;20051;-79
2022/06/17 07:54:10;;;;;;;8.27;5.20;;;21.10;99.90;;;;;;5077229;28;20035;-79
2022/06/17 07:56:36;;;;;;;9.32;4.78;;;21.20;99.90;;;;;;5060641;28;20032;-80
2022/06/17 07:59:02;;;;;;;8.38;5.13;;;21.40;99.90;;;;;;5060036;28;20044;-80
2022/06/17 08:01:27;;;;;;;7.80;4.78;;;21.50;99.90;;;;;;5076967;28;20398;-78
2022/06/17 08:03:53;;;;;;;9.27;4.97;;;21.60;99.90;;;;;;5077031;28;20040;-79
2022/06/17 08:06:19;;;;;;;10.18;4.80;;;21.70;99.90;;;;;;5094097;28;20040;-80
2022/06/17 08:08:45;;;;;;;9.27;5.18;;;21.80;99.90;;;;;;5059876;28;20498;-79
2022/06/17 08:11:15;;;;;;;8.90;5.00;;;21.80;99.90;;;;;;5060959;28;20120;-79
2022/06/17 08:13:41;;;;;;;9.80;4.82;;;21.90;99.90;;;;;;5070597;28;20037;-79
2022/06/17 08:16:11;;;;;;;9.95;5.20;;;21.90;99.90;;;;;;5063921;28;20040;-79
2022/06/17 08:18:42;;;;;;;6.93;4.78;;;21.90;99.90;;;;;;5073416;28;20040;-80
2022/06/17 08:21:15;;;;;;;10.30;5.10;;;21.90;99.90;;;;;;5089482;28;20040;-80
2022/06/17 08:23:41;;;;;;;8.50;5.25;;;22.10;99.90;;;;;;5075828;28;20044;-80
2022/06/17 08:26:07;;;;;;;7.13;4.35;;;22.30;99.90;;;;;;5075810;28;20043;-80
2022/06/17 08:28:32;;;;;;;7.15;4.70;;;22.50;99.90;;;;;;5075869;28;20040;-79
2022/06/17 08:30:58;;;;;;;8.77;5.03;;;22.80;99.90;;;;;;5059184;28;20036;-80
2022/06/17 08:33:29;;;;;;;9.02;4.82;;;23.00;99.90;;;;;;5075953;28;20036;-80
2022/06/17 08:36:12;;;;;;;8.88;4.68;;;23.10;99.90;;;;;;5075254;28;20044;-80
2022/06/17 08:38:46;;;;;;;;;;;23.20;99.90;;;;;;5060679;28;20501;-80
2022/06/17 08:41:25;;;;;;;12.85;5.35;;;23.20;99.90;;;;;;5078111;28;19920;-78
2022/06/17 08:44:00;;;;;;;13.38;5.38;;;23.20;99.90;;;;;;5056201;28;20040;-79
2022/06/17 08:46:38;;;;;;;11.00;5.75;;;23.30;99.90;;;;;;5056239;28;20399;-79
2022/06/17 08:49:34;;;;;;;15.23;6.47;;;23.20;99.90;;;;;;5039142;28;20128;-80
2022/06/17 08:52:38;;;;;;;14.13;5.50;;;23.10;99.90;;;;;;5038296;28;20043;-79
2022/06/17 08:55:14;;;;;;;10.95;4.90;;;23.20;99.90;;;;;;5038998;28;20040;-80
2022/06/17 08:58:05;;;;;;;16.27;5.40;;;23.20;99.90;;;;;;5057426;28;20068;-79
2022/06/17 09:00:53;;;;;;;19.52;5.20;;;23.20;99.90;;;;;;5072322;28;20071;-80
2022/06/17 09:03:44;;;;;;;9.30;5.20;;;23.20;99.90;;;;;;5055864;28;20127;-80
2022/06/17 09:06:15;;;;;;;9.15;4.45;;;23.30;99.90;;;;;;5057048;28;20506;-79
2022/06/17 09:08:59;;;;;;;7.15;4.25;;;23.30;99.90;;;;;;5055814;28;20048;-80
2022/06/17 09:11:37;;;;;;;7.38;3.85;;;23.50;99.90;;;;;;5087355;28;20426;-80
2022/06/17 09:14:10;;;;;;;12.60;4.10;;;23.60;99.90;;;;;;5072170;28;20048;-80
2022/06/17 09:16:45;;;;;;;9.57;4.00;;;23.50;99.90;;;;;;5089012;28;20036;-80
2022/06/17 09:19:43;;;;;;;9.75;3.72;;;23.60;99.90;;;;;;5072913;28;20043;-81
2022/06/17 09:22:21;;;;;;;5.63;3.58;;;23.60;99.90;;;;;;5087411;28;20044;-79
2022/06/17 09:24:47;;;;;;;;;;;23.70;99.90;;;;;;5051699;28;20144;-79
2022/06/17 09:27:28;;;;;;;13.20;4.10;;;23.70;99.90;;;;;;5067324;28;20012;-80
2022/06/17 09:30:06;;;;;;;7.60;3.88;;;23.50;99.90;;;;;;5034509;28;20432;-80
2022/06/17 09:32:41;;;;;;;9.75;3.70;;;23.70;99.90;;;;;;5058367;28;20117;-80
2022/06/17 09:35:42;;;;;;;10.50;3.58;;;23.80;99.90;;;;;;5070992;28;20032;-80
2022/06/17 09:38:19;;;;;;;12.20;4.43;;;23.90;99.90;;;;;;5052602;28;20120;-80
2022/06/17 09:41:06;;;;;;;8.02;3.80;;;24.20;99.90;;;;;;5058946;28;20063;-80
2022/06/17 09:43:56;;;;;;;7.80;3.30;;;24.60;99.90;;;;;;5054801;28;20045;-80
2022/06/17 09:46:25;;;;;;;11.23;3.67;;;25.20;99.90;;;;;;5051567;28;20122;-80
2022/06/17 09:49:07;;;;;;;11.52;4.47;;;25.40;99.90;;;;;;5051667;28;20044;-81
2022/06/17 09:51:54;;;;;;;9.52;4.05;;;25.60;99.90;;;;;;5050425;28;20127;-80
2022/06/17 09:54:27;;;;;;;8.23;3.47;;;25.30;99.90;;;;;;5052274;28;20484;-79
2022/06/17 09:57:05;;;;;;;7.50;3.15;;;24.90;99.90;;;;;;5054624;28;20040;-80
2022/06/17 09:59:43;;;;;;;5.53;3.10;;;24.90;99.90;;;;;;5054686;28;20037;-79
2022/06/17 10:02:29;;;;;;;9.05;3.30;;;24.90;99.90;;;;;;5054769;28;20036;-80
2022/06/17 10:04:57;;;;;;;12.00;3.30;;;24.80;99.90;;;;;;5071185;28;20102;-79
2022/06/17 10:07:44;;;;;;;5.75;3.10;;;24.90;99.90;;;;;;5055111;28;20044;-80
2022/06/17 10:10:35;;;;;;;6.10;3.25;;;24.90;99.90;;;;;;5073145;28;20102;-78
2022/06/17 10:13:39;;;;;;;8.88;3.35;;;24.80;99.90;;;;;;5072039;28;20052;-79
2022/06/17 10:19:01;;;;;;;5.80;3.00;;;24.60;99.90;;;;;;4974165;28;20133;-79
2022/06/17 10:21:54;;;;;;;8.02;3.30;;;24.50;99.90;;;;;;4973455;28;20050;-80
2022/06/17 10:24:44;;;;;;;9.85;3.13;;;24.50;99.90;;;;;;4957948;28;20514;-79
2022/06/17 10:27:19;;;;;;;6.68;2.83;;;24.60;99.90;;;;;;4990561;28;20169;-80
2022/06/17 10:29:58;;;;;;;;;;;24.70;99.90;;;;;;4958540;28;20345;-80
2022/06/17 10:32:26;;;;;;;7.57;3.22;;;24.80;99.90;;;;;;4974186;28;19949;-80
2022/06/17 10:34:58;;;;;;;6.63;2.83;;;24.60;99.90;;;;;;4974270;28;20042;-80
2022/06/17 10:37:26;;;;;;;4.13;2.53;;;24.90;99.90;;;;;;4973874;28;20034;-80
2022/06/17 10:39:53;;;;;;;8.45;3.10;;;25.00;99.90;;;;;;4974208;28;20062;-80
2022/06/17 10:42:23;;;;;;;4.70;2.78;;;25.10;99.90;;;;;;4974366;28;20061;-80
2022/06/17 10:44:53;;;;;;;7.15;2.85;;;25.30;99.90;;;;;;4990646;28;20398;-80
2022/06/17 10:48:05;;;;;;;6.43;2.80;;;25.50;99.90;;;;;;4990829;28;20516;-80
2022/06/17 10:50:31;;;;;;;7.68;3.22;;;25.70;99.90;;;;;;4936941;28;20047;-80
2022/06/17 10:53:21;;;;;;;9.00;3.08;;;25.90;99.90;;;;;;4996120;28;20080;-80
2022/06/17 10:55:54;;;;;;;6.35;2.85;;;26.10;99.90;;;;;;5029226;28;20041;-80
2022/06/17 10:58:27;;;;;;;7.97;3.00;;;26.10;99.90;;;;;;4980471;28;20045;-80
2022/06/17 11:00:55;;;;;;;9.10;3.00;;;26.20;99.90;;;;;;4997056;28;20041;-79
2022/06/17 11:03:25;;;;;;;7.00;3.53;;;26.20;99.90;;;;;;4996911;28;20128;-80
2022/06/17 11:06:11;;;;;;;9.07;3.10;;;26.30;99.90;;;;;;5023282;28;20088;-79
2022/06/17 11:08:48;;;;;;;7.65;3.42;;;26.40;99.90;;;;;;5011572;28;20053;-79
2022/06/17 11:14:05;;;;;;;7.28;3.30;;;26.50;99.90;;;;;;5029737;28;20064;-79
2022/06/17 11:16:40;;;;;;;7.68;3.70;;;26.70;99.90;;;;;;5029245;28;20087;-80
2022/06/17 11:19:16;;;;;;;9.18;3.95;;;26.90;99.90;;;;;;5012734;28;20089;-80
2022/06/17 11:21:49;;;;;;;6.78;3.40;;;26.90;99.90;;;;;;4995617;28;20049;-81
2022/06/17 11:24:38;;;;;;;6.78;3.50;;;27.30;99.80;;;;;;5050558;28;20049;-80
2022/06/17 11:27:22;;;;;;;6.90;3.53;;;27.40;99.80;;;;;;5069991;28;20052;-80
2022/06/17 11:29:50;;;;;;;6.20;3.67;;;27.40;99.60;;;;;;5070504;28;20043;-80
2022/06/17 11:32:19;;;;;;;8.20;3.80;;;27.70;99.50;;;;;;5071707;28;20113;-81
2022/06/17 11:34:50;;;;;;;9.85;4.10;;;27.60;98.90;;;;;;5069825;28;20170;-78
2022/06/17 11:37:23;;;;;;;8.52;3.65;;;27.50;99.00;;;;;;5053504;28;20479;-79
2022/06/17 11:40:11;;;;;;;9.98;3.80;;;27.50;99.00;;;;;;5071991;28;20048;-80
2022/06/17 11:42:53;;;;;;;8.90;4.00;;;27.70;99.40;;;;;;5069897;28;20071;-78
2022/06/17 11:45:32;;;;;;;7.43;4.10;;;27.90;98.40;;;;;;5070036;28;20856;-81
2022/06/17 11:48:22;;;;;;;10.82;3.97;;;27.60;98.40;;;;;;5053181;28;20052;-80
2022/06/17 11:51:11;;;;;;;13.05;4.68;;;27.80;98.40;;;;;;5054496;28;20051;-80
2022/06/17 11:53:51;;;;;;;6.88;3.65;;;27.50;97.50;;;;;;5056850;28;20040;-79
2022/06/17 11:56:38;;;;;;;6.70;3.90;;;27.60;97.50;;;;;;5069765;28;20615;-80
2022/06/17 11:59:15;;;;;;;13.55;3.08;;;27.90;97.90;;;;;;5036718;28;20456;-81
2022/06/17 12:02:08;;;;;;;14.25;3.97;;;27.90;97.70;;;;;;5053104;28;20040;-81
2022/06/17 12:04:52;;;;;;;9.70;3.83;;;28.10;96.70;;;;;;5060305;28;20383;-81
2022/06/17 12:07:35;;;;;;;7.33;3.40;;;28.50;96.80;;;;;;5053069;28;20040;-81
2022/06/17 12:10:29;;;;;;;9.63;3.60;;;28.70;96.40;;;;;;5053576;28;20623;-80
2022/06/17 12:13:15;;;;;;;7.85;3.05;;;28.90;95.10;;;;;;5036595;28;20053;-79
2022/06/17 12:15:51;;;;;;;6.38;3.05;;;29.20;95.60;;;;;;5035933;28;20102;-80
2022/06/17 12:18:35;;;;;;;5.95;2.92;;;29.50;95.50;;;;;;5049273;28;20398;-81
2022/06/17 12:25:00;;;;;;;8.00;3.13;;;29.60;95.60;;;;;;5079887;28;19923;-80
2022/06/17 12:27:31;;;;;;;5.53;2.78;;;29.70;95.30;;;;;;5059896;28;20071;-81
2022/06/17 12:30:21;;;;;;;7.63;2.95;;;29.80;94.30;;;;;;5078310;28;20538;-78
2022/06/17 12:33:15;;;;;;;6.20;2.90;;;29.70;93.60;;;;;;5088768;28;20058;-78
2022/06/17 12:36:08;;;;;;;6.93;3.10;;;30.00;93.10;;;;;;5063085;28;20375;-79
2022/06/17 12:39:10;;;;;;;8.93;2.70;;;30.10;93.80;;;;;;5084973;28;20048;-80
2022/06/17 12:41:48;;;;;;;7.43;2.55;;;30.90;93.50;;;;;;5075892;28;20032;-81
2022/06/17 12:44:20;;;;;;;7.45;2.58;;;30.70;93.10;;;;;;5059056;28;20043;-81
2022/06/17 12:47:14;;;;;;;9.05;3.15;;;30.70;93.60;;;;;;5075738;28;20042;-80
2022/06/17 12:53:24;;;;;;;8.95;2.85;;;30.10;91.90;;;;;;5093503;28;19942;-81
2022/06/17 12:56:07;;;;;;;6.15;2.95;;;30.00;92.60;;;;;;5093950;28;20101;-80
2022/06/17 12:58:55;;;;;;;5.00;2.92;;;30.10;92.90;;;;;;5093838;28;20032;-80
2022/06/17 13:01:28;;;;;;;6.70;2.58;;;30.20;92.70;;;;;;5057936;28;20044;-79
2022/06/17 13:04:32;;;;;;;12.45;3.40;;;30.00;93.30;;;;;;5075335;28;20149;-79
2022/06/17 13:07:08;;;;;;;12.98;3.42;;;29.60;93.00;;;;;;5014433;28;20049;-79
2022/06/17 13:09:52;;;;;;;6.22;3.40;;;29.50;93.80;;;;;;5014420;28;20456;-81
2022/06/17 13:12:33;;;;;;;7.07;3.35;;;29.30;93.80;;;;;;5030863;28;20376;-80
2022/06/17 13:15:23;;;;;;;9.63;3.20;;;29.00;94.30;;;;;;5014103;28;20041;-79
2022/06/17 13:18:02;;;;;;;7.70;3.15;;;28.90;93.90;;;;;;5037443;28;20037;-79
2022/06/17 13:20:35;;;;;;;6.60;3.10;;;28.90;93.90;;;;;;5023590;28;20045;-80
2022/06/17 13:23:04;;;;;;;7.65;3.13;;;28.70;94.20;;;;;;5013957;28;20057;-80
2022/06/17 13:25:38;;;;;;;6.57;3.38;;;28.70;95.10;;;;;;5030724;28;20046;-80
2022/06/17 13:28:16;;;;;;;6.90;2.97;;;28.70;95.00;;;;;;5030799;28;20120;-81
2022/06/17 13:30:46;;;;;;;6.45;3.10;;;28.70;95.10;;;;;;5030686;28;20053;-82
2022/06/17 13:33:20;;;;;;;6.47;2.88;;;28.80;95.50;;;;;;4997318;28;20132;-81
2022/06/17 13:36:10;;;;;;;6.70;2.67;;;28.80;94.90;;;;;;5013333;28;20580;-81
2022/06/17 13:38:44;;;;;;;7.25;3.10;;;29.00;95.00;;;;;;5013056;28;20534;-81
2022/06/17 13:41:22;;;;;;;7.88;2.90;;;29.10;94.60;;;;;;5030170;28;20049;-80
2022/06/17 13:44:16;;;;;;;8.02;3.25;;;29.30;94.90;;;;;;5093048;28;20394;-80